createdAt,value
2019-05-14T00:01:22.885Z,8.31
2019-05-14T00:03:52.660Z,8.30
2019-05-14T00:10:11.948Z,8.21
2019-05-14T00:12:41.999Z,8.01
2019-05-14T00:15:12.214Z,7.91
2019-05-14T00:17:42.009Z,7.84
2019-05-14T00:20:13.108Z,7.76
2019-05-14T00:22:43.415Z,7.71
2019-05-14T00:25:13.673Z,7.62
2019-05-14T00:27:43.415Z,7.54
2019-05-14T00:30:14.006Z,7.48
2019-05-14T00:32:43.848Z,7.50
2019-05-14T00:35:13.814Z,7.61
2019-05-14T00:37:43.745Z,7.68
2019-05-14T00:40:13.940Z,7.73
2019-05-14T00:42:43.714Z,7.78
2019-05-14T00:45:13.712Z,7.83
2019-05-14T00:47:44.745Z,7.84
2019-05-14T00:50:14.787Z,7.86
2019-05-14T00:52:46.401Z,7.78
2019-05-14T00:55:16.135Z,7.65
2019-05-14T00:57:46.087Z,7.53
2019-05-14T01:00:17.321Z,7.45
2019-05-14T01:02:47.030Z,7.37
2019-05-14T01:05:16.948Z,7.30
2019-05-14T01:07:47.148Z,7.24
2019-05-14T01:10:17.916Z,7.19
2019-05-14T01:16:23.224Z,7.16
2019-05-14T01:18:53.023Z,7.07
2019-05-14T01:21:23.726Z,7.01
2019-05-14T01:23:53.381Z,6.97
2019-05-14T01:26:23.526Z,6.94
2019-05-14T01:28:53.618Z,6.92
2019-05-14T01:31:23.503Z,6.93
2019-05-14T01:33:53.159Z,6.91
2019-05-14T01:36:23.338Z,6.87
2019-05-14T01:38:53.237Z,6.82
2019-05-14T01:41:23.854Z,6.78
2019-05-14T01:43:53.533Z,6.72
2019-05-14T01:46:23.539Z,6.68
2019-05-14T01:48:53.197Z,6.65
2019-05-14T01:51:23.194Z,6.65
2019-05-14T01:53:53.202Z,6.63
2019-05-14T01:56:23.766Z,6.61
2019-05-14T01:58:53.409Z,6.58
2019-05-14T02:01:23.110Z,6.55
2019-05-14T02:03:52.862Z,6.54
2019-05-14T02:06:22.553Z,6.50
2019-05-14T02:08:52.298Z,6.48
2019-05-14T02:11:22.704Z,6.45
2019-05-14T02:13:52.544Z,6.43
2019-05-14T02:16:23.551Z,6.43
2019-05-14T02:18:53.234Z,6.38
2019-05-14T02:21:23.128Z,6.35
2019-05-14T02:23:52.961Z,6.37
2019-05-14T02:26:23.148Z,6.37
2019-05-14T02:28:53.182Z,6.37
2019-05-14T02:31:23.571Z,6.37
2019-05-14T02:33:53.399Z,6.36
2019-05-14T02:36:23.795Z,6.37
2019-05-14T02:38:53.524Z,6.35
2019-05-14T02:41:24.320Z,6.34
2019-05-14T02:43:53.993Z,6.33
2019-05-14T02:46:24.399Z,6.31
2019-05-14T02:48:54.134Z,6.30
2019-05-14T02:51:24.409Z,6.26
2019-05-14T02:53:54.068Z,6.22
2019-05-14T02:56:23.746Z,6.12
2019-05-14T02:58:53.542Z,6.11
2019-05-14T03:01:24.574Z,6.08
2019-05-14T03:03:55.049Z,6.09
2019-05-14T03:06:24.919Z,6.08
2019-05-14T03:08:54.670Z,6.04
2019-05-14T03:11:29.431Z,6.05
2019-05-14T03:13:59.876Z,6.05
2019-05-14T03:16:35.256Z,6.04
2019-05-14T03:19:02.085Z,6.04
2019-05-14T03:21:32.566Z,6.04
2019-05-14T03:24:03.547Z,5.98
2019-05-14T03:26:33.780Z,5.98
2019-05-14T03:29:03.608Z,6.00
2019-05-14T03:31:34.180Z,6.00
2019-05-14T03:34:04.318Z,6.00
2019-05-14T03:36:35.651Z,6.02
2019-05-14T03:39:10.165Z,6.04
2019-05-14T03:41:39.768Z,6.06
2019-05-14T03:44:10.229Z,6.10
2019-05-14T03:46:49.439Z,6.11
2019-05-14T03:49:12.785Z,6.16
2019-05-14T03:51:43.492Z,6.20
2019-05-14T03:54:13.306Z,6.24
2019-05-14T03:56:43.262Z,6.33
2019-05-14T03:59:14.608Z,6.61
2019-05-14T04:01:44.992Z,7.37
2019-05-14T04:04:19.176Z,8.13
2019-05-14T04:06:49.655Z,8.63
2019-05-14T04:09:21.403Z,8.82
2019-05-14T04:11:53.808Z,8.85
2019-05-14T04:14:25.318Z,9.30
2019-05-14T04:17:08.313Z,9.82
2019-05-14T04:19:29.816Z,10.28
2019-05-14T04:22:00.622Z,10.67
2019-05-14T04:24:36.670Z,11.05
2019-05-14T04:27:11.623Z,11.28
2019-05-14T04:29:40.867Z,11.53
2019-05-14T04:32:11.229Z,11.67
2019-05-14T04:34:42.033Z,11.83
2019-05-14T04:37:13.110Z,12.17
2019-05-14T04:39:50.447Z,12.47
2019-05-14T04:42:29.311Z,12.81
2019-05-14T04:45:02.466Z,13.18
2019-05-14T04:47:36.522Z,13.53
2019-05-14T04:50:03.573Z,13.85
2019-05-14T04:52:33.487Z,14.18
2019-05-14T04:55:05.542Z,14.32
2019-05-14T04:57:35.410Z,14.45
2019-05-14T05:00:05.746Z,14.58
2019-05-14T05:02:35.525Z,14.65
2019-05-14T05:08:44.000Z,14.65
2019-05-14T05:11:13.317Z,14.76
2019-05-14T05:13:43.050Z,14.93
2019-05-14T05:16:12.704Z,15.20
2019-05-14T05:18:42.372Z,15.40
2019-05-14T05:21:12.057Z,15.44
2019-05-14T05:23:41.776Z,15.65
2019-05-14T05:26:11.448Z,15.90
2019-05-14T05:28:41.159Z,16.15
2019-05-14T05:31:10.840Z,16.49
2019-05-14T05:33:40.523Z,16.58
2019-05-14T05:36:10.187Z,16.60
2019-05-14T05:38:39.865Z,16.67
2019-05-14T05:41:59.724Z,16.78
2019-05-14T05:44:35.052Z,16.88
2019-05-14T05:47:04.731Z,17.30
2019-05-14T05:49:34.517Z,17.36
2019-05-14T05:52:04.271Z,17.51
2019-05-14T05:54:33.966Z,17.58
2019-05-14T05:57:32.364Z,17.85
2019-05-14T06:00:02.264Z,18.37
2019-05-14T06:02:32.025Z,19.12
2019-05-14T06:05:02.655Z,19.30
2019-05-14T06:07:40.045Z,19.33
2019-05-14T06:10:10.100Z,19.61
2019-05-14T06:12:39.830Z,19.77
2019-05-14T06:15:09.596Z,19.85
2019-05-14T06:17:39.494Z,19.74
2019-05-14T06:20:09.689Z,19.51
2019-05-14T06:22:39.447Z,19.40
2019-05-14T06:25:11.224Z,19.98
2019-05-14T06:27:41.137Z,20.20
2019-05-14T06:30:11.271Z,19.89
2019-05-14T06:32:41.031Z,19.70
2019-05-14T06:35:11.151Z,19.75
2019-05-14T06:37:40.814Z,19.98
2019-05-14T06:40:10.779Z,19.97
2019-05-14T06:42:40.464Z,19.95
2019-05-14T06:45:10.527Z,20.14
2019-05-14T06:47:40.208Z,20.25
2019-05-14T06:50:10.195Z,20.55
2019-05-14T06:52:39.859Z,20.88
2019-05-14T06:55:09.723Z,20.97
2019-05-14T06:57:39.629Z,21.15
2019-05-14T07:00:10.111Z,21.16
2019-05-14T07:02:43.634Z,21.86
2019-05-14T07:05:12.817Z,22.32
2019-05-14T07:07:42.494Z,22.32
2019-05-14T07:10:12.699Z,22.47
2019-05-14T07:12:42.373Z,22.55
2019-05-14T07:15:12.456Z,22.55
2019-05-14T07:17:42.129Z,22.83
2019-05-14T07:20:12.070Z,22.77
2019-05-14T07:22:41.751Z,22.66
2019-05-14T07:25:11.806Z,22.96
2019-05-14T07:27:41.459Z,23.58
2019-05-14T07:30:11.974Z,23.68
2019-05-14T07:32:41.646Z,23.58
2019-05-14T07:35:11.818Z,22.68
2019-05-14T07:37:41.472Z,22.28
2019-05-14T07:40:11.949Z,21.31
2019-05-14T07:42:41.634Z,22.05
2019-05-14T07:45:11.658Z,21.19
2019-05-14T07:47:41.399Z,21.35
2019-05-14T07:50:12.343Z,22.69
2019-05-14T07:52:45.948Z,23.63
2019-05-14T07:55:14.425Z,24.12
2019-05-14T07:57:44.398Z,19.70
2019-05-14T08:00:14.447Z,19.70
2019-05-14T08:02:44.995Z,19.69
2019-05-14T08:05:14.910Z,19.42
2019-05-14T08:07:44.611Z,18.02
2019-05-14T08:10:14.995Z,18.11
2019-05-14T08:12:45.039Z,19.11
2019-05-14T08:15:19.981Z,21.37
2019-05-14T08:17:48.184Z,22.64
2019-05-14T08:20:18.443Z,23.03
2019-05-14T08:23:05.349Z,21.33
2019-05-14T08:25:38.813Z,20.84
2019-05-14T08:28:08.536Z,19.82
2019-05-14T08:30:39.057Z,18.56
2019-05-14T08:33:09.099Z,17.32
2019-05-14T08:35:39.500Z,16.84
2019-05-14T08:38:12.271Z,16.33
2019-05-14T08:40:40.808Z,16.20
2019-05-14T08:43:10.527Z,17.19
2019-05-14T08:45:40.376Z,19.12
2019-05-14T08:48:10.111Z,20.77
2019-05-14T08:50:39.873Z,21.75
2019-05-14T08:53:09.594Z,22.62
2019-05-14T08:55:39.359Z,23.21
2019-05-14T08:58:13.593Z,23.64
2019-05-14T09:00:40.400Z,24.05
2019-05-14T09:03:10.073Z,23.02
2019-05-14T09:05:39.760Z,22.60
2019-05-14T09:08:09.464Z,22.13
2019-05-14T09:10:40.244Z,19.91
2019-05-14T09:13:10.364Z,20.61
2019-05-14T09:15:40.025Z,22.30
2019-05-14T09:18:11.726Z,22.30
2019-05-14T09:20:41.225Z,22.99
2019-05-14T09:23:10.992Z,24.19
2019-05-14T09:25:47.963Z,25.05
2019-05-14T09:28:12.355Z,24.83
2019-05-14T09:30:42.044Z,25.17
2019-05-14T09:33:11.893Z,25.73
2019-05-14T09:35:41.551Z,25.81
2019-05-14T09:38:11.228Z,26.23
2019-05-14T09:40:40.991Z,26.98
2019-05-14T09:43:10.677Z,25.16
2019-05-14T09:45:40.434Z,24.22
2019-05-14T09:48:10.230Z,24.59
2019-05-14T09:50:39.998Z,25.05
2019-05-14T09:53:09.937Z,23.77
2019-05-14T09:55:40.595Z,21.59
2019-05-14T09:58:10.279Z,19.77
2019-05-14T10:00:40.047Z,19.16
2019-05-14T10:03:09.967Z,20.35
2019-05-14T10:05:40.842Z,21.54
2019-05-14T10:08:10.536Z,22.93
2019-05-14T10:10:40.242Z,23.35
2019-05-14T10:13:10.099Z,23.96
2019-05-14T10:15:39.756Z,24.74
2019-05-14T10:18:11.647Z,24.78
2019-05-14T10:20:45.465Z,22.45
2019-05-14T10:23:12.229Z,20.42
2019-05-14T10:25:42.601Z,18.94
2019-05-14T10:28:12.582Z,17.91
2019-05-14T10:30:42.337Z,17.35
2019-05-14T10:33:14.966Z,19.24
2019-05-14T10:35:43.519Z,21.61
2019-05-14T10:38:13.324Z,23.51
2019-05-14T10:40:43.141Z,22.97
2019-05-14T10:43:12.862Z,21.16
2019-05-14T10:45:42.774Z,19.57
2019-05-14T10:48:12.490Z,18.44
2019-05-14T10:50:56.122Z,17.71
2019-05-14T10:53:13.655Z,17.21
2019-05-14T10:55:43.378Z,18.95
2019-05-14T10:58:14.127Z,19.15
2019-05-14T11:00:43.872Z,18.70
2019-05-14T11:03:13.557Z,18.40
2019-05-14T11:05:43.330Z,17.94
2019-05-14T11:08:13.057Z,17.69
2019-05-14T11:10:42.860Z,17.39
2019-05-14T11:13:13.627Z,19.07
2019-05-14T11:15:43.316Z,22.12
2019-05-14T11:18:13.043Z,22.12
2019-05-14T11:20:42.999Z,22.86
2019-05-14T11:23:12.752Z,23.50
2019-05-14T11:25:42.558Z,23.93
2019-05-14T11:28:12.369Z,24.27
2019-05-14T11:30:42.081Z,24.58
2019-05-14T11:33:11.754Z,24.92
2019-05-14T11:35:41.596Z,24.91
2019-05-14T11:38:28.037Z,24.97
2019-05-14T11:40:42.661Z,25.31
2019-05-14T11:43:12.364Z,23.77
2019-05-14T11:45:42.071Z,21.81
2019-05-14T11:48:11.733Z,20.74
2019-05-14T11:50:41.432Z,19.70
2019-05-14T11:53:11.238Z,18.96
2019-05-14T11:55:41.007Z,19.10
2019-05-14T11:58:10.687Z,19.28
2019-05-14T12:00:40.531Z,20.55
2019-05-14T12:03:10.213Z,21.80
2019-05-14T12:05:39.880Z,22.54
2019-05-14T12:08:09.569Z,23.34
2019-05-14T12:10:39.322Z,23.37
2019-05-14T12:13:09.084Z,22.87
2019-05-14T12:15:39.045Z,22.79
2019-05-14T12:18:10.386Z,21.35
2019-05-14T12:20:40.342Z,19.92
2019-05-14T12:23:10.046Z,19.00
2019-05-14T12:25:39.814Z,18.38
2019-05-14T12:28:13.616Z,18.06
2019-05-14T12:30:41.041Z,18.91
2019-05-14T12:33:10.783Z,21.40
2019-05-14T12:35:40.644Z,23.05
2019-05-14T12:38:10.474Z,22.33
2019-05-14T12:40:41.214Z,20.75
2019-05-14T12:43:10.933Z,19.66
2019-05-14T12:45:40.657Z,19.20
2019-05-14T12:48:10.328Z,19.80
2019-05-14T12:50:40.024Z,20.15
2019-05-14T12:53:09.743Z,19.95
2019-05-14T12:55:40.318Z,19.66
2019-05-14T12:58:10.003Z,19.34
2019-05-14T13:00:39.868Z,18.94
2019-05-14T13:03:09.554Z,18.68
2019-05-14T13:05:39.292Z,18.37
2019-05-14T13:08:11.445Z,18.49
2019-05-14T13:10:40.585Z,18.74
2019-05-14T13:13:10.271Z,18.66
2019-05-14T13:15:40.954Z,18.49
2019-05-14T13:18:10.661Z,18.28
2019-05-14T13:20:40.384Z,18.40
2019-05-14T13:23:11.124Z,18.46
2019-05-14T13:25:40.843Z,18.41
2019-05-14T13:28:10.507Z,18.45
2019-05-14T13:30:40.305Z,18.23
2019-05-14T13:33:09.978Z,18.31
2019-05-14T13:35:40.195Z,18.09
2019-05-14T13:38:14.429Z,17.63
2019-05-14T13:40:41.328Z,17.24
2019-05-14T13:43:14.263Z,17.02
2019-05-14T13:45:42.637Z,16.88
2019-05-14T13:48:12.307Z,16.80
2019-05-14T13:50:43.084Z,16.74
2019-05-14T13:53:13.126Z,17.12
2019-05-14T13:55:47.508Z,17.33
2019-05-14T13:58:14.501Z,17.44
2019-05-14T14:00:44.441Z,17.57
2019-05-14T14:03:14.186Z,17.54
2019-05-14T14:05:44.827Z,17.40
2019-05-14T14:08:14.566Z,17.33
2019-05-14T14:10:46.371Z,17.51
2019-05-14T14:13:15.724Z,17.57
2019-05-14T14:15:45.446Z,17.38
2019-05-14T14:18:20.660Z,17.19
2019-05-14T14:20:48.878Z,17.10
2019-05-14T14:23:26.442Z,17.11
2019-05-14T14:25:54.759Z,17.01
2019-05-14T14:28:21.702Z,16.93
2019-05-14T14:30:51.465Z,16.99
2019-05-14T14:33:21.141Z,17.02
2019-05-14T14:35:50.844Z,17.02
2019-05-14T14:38:20.591Z,16.96
2019-05-14T14:40:50.290Z,16.71
2019-05-14T14:43:25.572Z,16.75
2019-05-14T14:45:55.437Z,16.91
2019-05-14T14:48:25.211Z,17.14
2019-05-14T14:50:54.989Z,17.16
2019-05-14T14:53:41.474Z,17.23
2019-05-14T14:55:56.114Z,17.28
2019-05-14T14:58:28.512Z,17.43
2019-05-14T15:00:59.387Z,17.54
2019-05-14T15:03:29.584Z,17.53
2019-05-14T15:05:59.419Z,17.42
2019-05-14T15:08:29.588Z,17.19
2019-05-14T15:10:59.566Z,16.97
2019-05-14T15:13:29.317Z,16.78
2019-05-14T15:16:01.099Z,16.75
2019-05-14T15:18:30.464Z,16.93
2019-05-14T15:21:00.139Z,17.23
2019-05-14T15:23:29.893Z,17.50
2019-05-14T15:25:59.959Z,17.51
2019-05-14T15:28:29.634Z,17.09
2019-05-14T15:30:59.681Z,16.31
2019-05-14T15:33:30.510Z,15.68
2019-05-14T15:36:00.167Z,15.37
2019-05-14T15:38:30.905Z,15.36
2019-05-14T15:41:00.701Z,15.33
2019-05-14T15:43:31.349Z,15.25
2019-05-14T15:46:01.013Z,15.28
2019-05-14T15:48:30.715Z,15.27
2019-05-14T15:51:00.371Z,15.53
2019-05-14T15:53:30.054Z,15.67
2019-05-14T15:55:59.736Z,15.65
2019-05-14T15:58:30.216Z,15.68
2019-05-14T16:01:01.180Z,15.62
2019-05-14T16:03:31.121Z,15.60
2019-05-14T16:06:00.795Z,15.66
2019-05-14T16:08:31.554Z,15.72
2019-05-14T16:11:05.165Z,15.62
2019-05-14T16:13:32.629Z,15.36
2019-05-14T16:16:02.397Z,15.16
2019-05-14T16:18:32.121Z,15.03
2019-05-14T16:21:01.783Z,14.99
2019-05-14T16:23:31.481Z,14.95
2019-05-14T16:26:01.283Z,14.95
2019-05-14T16:28:30.966Z,14.85
2019-05-14T16:31:00.645Z,14.63
2019-05-14T16:33:30.351Z,14.47
2019-05-14T16:36:00.043Z,14.38
2019-05-14T16:38:29.715Z,14.26
2019-05-14T16:40:59.827Z,14.29
2019-05-14T16:43:32.483Z,14.25
2019-05-14T16:46:01.958Z,14.13
2019-05-14T16:48:31.679Z,14.01
2019-05-14T16:52:14.678Z,13.99
2019-05-14T16:54:44.427Z,14.01
2019-05-14T16:57:14.106Z,14.01
2019-05-14T16:59:43.844Z,14.06
2019-05-14T17:02:13.531Z,14.12
2019-05-14T17:04:43.217Z,14.12
2019-05-14T17:07:13.038Z,14.09
2019-05-14T17:09:42.709Z,13.93
2019-05-14T17:12:12.559Z,13.85
2019-05-14T17:14:42.405Z,13.77
2019-05-14T17:17:12.165Z,13.65
2019-05-14T17:19:41.974Z,13.53
2019-05-14T17:22:24.379Z,13.48
2019-05-14T17:24:43.125Z,13.43
2019-05-14T17:27:12.812Z,13.39
2019-05-14T17:29:42.581Z,13.36
2019-05-14T17:32:12.331Z,13.33
2019-05-14T17:34:42.095Z,13.30
2019-05-14T17:37:13.412Z,13.26
2019-05-14T17:39:43.739Z,13.22
2019-05-14T17:42:14.666Z,13.20
2019-05-14T17:44:44.937Z,13.12
2019-05-14T17:47:14.857Z,13.08
2019-05-14T17:49:45.505Z,13.03
2019-05-14T17:52:15.174Z,12.99
2019-05-14T17:54:45.251Z,12.90
2019-05-14T17:57:14.930Z,12.78
2019-05-14T17:59:44.770Z,12.65
2019-05-14T18:02:14.650Z,12.55
2019-05-14T18:04:44.476Z,12.46
2019-05-14T18:07:14.205Z,12.38
2019-05-14T18:09:43.944Z,12.31
2019-05-14T18:13:18.034Z,12.27
2019-05-14T18:15:48.815Z,12.25
2019-05-14T18:18:18.511Z,12.20
2019-05-14T18:20:49.436Z,12.15
2019-05-14T18:23:19.411Z,12.11
2019-05-14T18:26:03.351Z,12.06
2019-05-14T18:28:20.491Z,11.97
2019-05-14T18:30:50.189Z,11.85
2019-05-14T18:33:20.131Z,11.81
2019-05-14T18:35:50.781Z,11.81
2019-05-14T18:38:20.700Z,11.76
2019-05-14T18:40:50.396Z,11.74
2019-05-14T18:43:20.428Z,11.68
2019-05-14T18:45:50.474Z,11.60
2019-05-14T18:48:20.185Z,11.54
2019-05-14T18:50:49.858Z,11.48
2019-05-14T18:53:19.515Z,11.39
2019-05-14T18:55:49.377Z,11.30
2019-05-14T18:58:19.602Z,11.23
2019-05-14T19:00:49.627Z,11.19
2019-05-14T19:03:19.830Z,11.12
2019-05-14T19:05:49.947Z,11.02
2019-05-14T19:08:19.673Z,10.95
2019-05-14T19:10:49.754Z,10.90
2019-05-14T19:13:19.446Z,10.86
2019-05-14T19:15:49.246Z,10.80
2019-05-14T19:18:19.342Z,10.77
2019-05-14T19:20:49.074Z,10.70
2019-05-14T19:23:18.934Z,10.64
2019-05-14T19:25:48.740Z,10.58
2019-05-14T19:28:19.457Z,10.55
2019-05-14T19:30:49.131Z,10.45
2019-05-14T19:33:20.551Z,10.40
2019-05-14T19:35:50.267Z,10.37
2019-05-14T19:38:19.963Z,10.33
2019-05-14T19:40:49.687Z,10.28
2019-05-14T19:43:19.380Z,10.20
2019-05-14T19:45:49.057Z,10.17
2019-05-14T19:48:19.207Z,10.12
2019-05-14T19:50:49.298Z,10.02
2019-05-14T19:53:19.035Z,9.97
2019-05-14T19:55:48.987Z,9.91
2019-05-14T19:58:20.150Z,9.85
2019-05-14T20:00:50.325Z,9.81
2019-05-14T20:03:20.591Z,9.80
2019-05-14T20:05:50.441Z,9.85
2019-05-14T20:08:20.363Z,9.86
2019-05-14T20:10:50.488Z,9.86
2019-05-14T20:13:20.600Z,9.86
2019-05-14T20:15:50.668Z,9.79
2019-05-14T20:18:20.567Z,9.72
2019-05-14T20:20:50.302Z,9.69
2019-05-14T20:23:20.256Z,9.68
2019-05-14T20:25:50.053Z,9.68
2019-05-14T20:28:19.777Z,9.63
2019-05-14T20:30:49.770Z,9.58
2019-05-14T20:33:19.488Z,9.60
2019-05-14T20:35:49.259Z,9.58
2019-05-14T20:38:18.973Z,9.54
2019-05-14T20:40:48.936Z,9.48
2019-05-14T20:43:18.822Z,9.42
2019-05-14T20:45:49.104Z,9.39
2019-05-14T20:48:19.435Z,9.27
2019-05-14T20:50:49.340Z,9.06
2019-05-14T20:53:19.300Z,8.91
2019-05-14T20:55:49.153Z,8.84
2019-05-14T20:58:19.858Z,8.82
2019-05-14T21:00:49.754Z,8.82
2019-05-14T21:03:19.525Z,8.83
2019-05-14T21:05:49.310Z,8.81
2019-05-14T21:08:19.929Z,8.79
2019-05-14T21:10:49.667Z,8.78
2019-05-14T21:13:19.440Z,8.80
2019-05-14T21:15:49.127Z,8.80
2019-05-14T21:18:33.280Z,8.73
2019-05-14T21:20:51.226Z,8.68
2019-05-14T21:23:20.950Z,8.62
2019-05-14T21:25:50.692Z,8.54
2019-05-14T21:28:20.645Z,8.43
2019-05-14T21:30:50.437Z,8.35
2019-05-14T21:33:20.260Z,8.27
2019-05-14T21:35:49.962Z,8.20
2019-05-14T21:38:19.670Z,8.14
2019-05-14T21:40:50.053Z,8.08
2019-05-14T21:43:20.056Z,8.00
2019-05-14T21:45:49.862Z,8.01
2019-05-14T21:48:20.094Z,8.04
2019-05-14T21:50:49.781Z,8.09
2019-05-14T21:53:19.526Z,8.14
2019-05-14T21:55:49.233Z,8.18
2019-05-14T21:58:19.771Z,8.18
2019-05-14T22:00:53.782Z,8.18
2019-05-14T22:03:23.902Z,8.21
2019-05-14T22:05:53.665Z,8.22
2019-05-14T22:08:23.502Z,8.24
2019-05-14T22:10:53.309Z,8.23
2019-05-14T22:13:23.028Z,8.18
2019-05-14T22:15:52.800Z,8.14
2019-05-14T22:18:22.629Z,8.00
2019-05-14T22:20:52.437Z,7.86
2019-05-14T22:23:22.140Z,7.72
2019-05-14T22:25:51.925Z,7.70
2019-05-14T22:28:21.657Z,7.75
2019-05-14T22:30:51.391Z,7.78
2019-05-14T22:33:24.521Z,7.78
2019-05-14T22:35:54.264Z,7.76
2019-05-14T22:38:24.212Z,7.75
2019-05-14T22:40:59.262Z,7.74
2019-05-14T22:43:29.199Z,7.75
2019-05-14T22:45:59.227Z,7.76
2019-05-14T22:48:29.092Z,7.73
2019-05-14T22:50:59.295Z,7.72
2019-05-14T22:53:30.424Z,7.70
2019-05-14T22:56:00.633Z,7.67
2019-05-14T22:58:33.747Z,7.63
2019-05-14T23:01:14.361Z,7.60
2019-05-14T23:03:39.406Z,7.55
2019-05-14T23:06:09.012Z,7.50
2019-05-14T23:08:39.334Z,7.44
2019-05-14T23:11:09.170Z,7.39
2019-05-14T23:13:39.324Z,7.34
2019-05-14T23:16:09.671Z,7.32
2019-05-14T23:18:39.441Z,7.30
2019-05-14T23:21:09.262Z,7.29
2019-05-14T23:23:39.421Z,7.24
2019-05-14T23:26:09.920Z,7.22
2019-05-14T23:28:45.473Z,7.19
2019-05-14T23:31:11.265Z,7.12
2019-05-14T23:33:40.984Z,7.10
2019-05-14T23:36:11.283Z,7.07
2019-05-14T23:38:41.010Z,7.01
2019-05-14T23:41:10.777Z,6.96
2019-05-14T23:43:40.544Z,6.90
2019-05-14T23:46:10.278Z,6.83
2019-05-14T23:48:39.953Z,6.75
2019-05-14T23:51:09.671Z,6.68
2019-05-14T23:53:39.498Z,6.64
2019-05-14T23:56:09.194Z,6.58
2019-05-14T23:58:38.959Z,6.53
